Lark Harbour, Canada
Current Conditions -  °F | °C
As of 8:00 PM on Thursday 18 Dec 2014 (Local Time) from CYJT Reporting Station
Broken Clouds Broken Clouds  
Wind Chill: 33°   Ceiling: 2200
Heat Index: 41°   Visibility: 15mi
Dew Point: 37°   Wind: 14mph
Humidity: 87%   Direction: 60°ENE
Pressure: 29.55"   Gusts: 20mph
Location:  49.1°N, 58.37°W
Report Text: CYJT 182300Z 06012G17KT 15SM BKN022 05/03 A2955 RMK ST7 SLP007
Loading
Personal Weather Stations






























Interactive Weather Map New forecast layout! Learn more

10-Day Weather Forecast

Advertisements
Track Severe Weather on mobile